createdAt,value
2023-01-20T00:00:33.500Z,100316.22
2023-01-20T00:02:59.970Z,100324.94
2023-01-20T00:05:26.587Z,100324.19
2023-01-20T00:07:53.276Z,100320.91
2023-01-20T00:10:19.797Z,100322.59
2023-01-20T00:12:46.276Z,100324.09
2023-01-20T00:15:13.032Z,100327.41
2023-01-20T00:17:39.595Z,100332.94
2023-01-20T00:20:06.543Z,100326.72
2023-01-20T00:22:34.118Z,100331.03
2023-01-20T00:25:00.825Z,100334.59
2023-01-20T00:27:27.309Z,100333.16
2023-01-20T00:29:53.842Z,100332.75
2023-01-20T00:32:20.295Z,100338.25
2023-01-20T00:34:46.710Z,100340.03
2023-01-20T00:37:13.158Z,100350.09
2023-01-20T00:39:39.626Z,100353.41
2023-01-20T00:42:06.389Z,100353.16
2023-01-20T00:44:32.833Z,100344.22
2023-01-20T00:46:59.330Z,100351.47
2023-01-20T00:49:25.744Z,100347.56
2023-01-20T00:51:52.161Z,100349.09
2023-01-20T00:54:18.639Z,100353.00
2023-01-20T00:56:45.212Z,100355.53
2023-01-20T00:59:11.848Z,100352.00
2023-01-20T01:01:38.363Z,100356.06
2023-01-20T01:04:05.122Z,100364.88
2023-01-20T01:06:31.590Z,100361.38
2023-01-20T01:08:58.099Z,100375.81
2023-01-20T01:11:24.662Z,100373.78
2023-01-20T01:13:51.262Z,100380.72
2023-01-20T01:16:17.856Z,100388.84
2023-01-20T01:18:44.446Z,100381.06
2023-01-20T01:21:14.107Z,100382.69
2023-01-20T01:23:40.720Z,100378.88
2023-01-20T01:26:07.274Z,100379.78
2023-01-20T01:28:33.734Z,100386.25
2023-01-20T01:31:04.838Z,100392.00
2023-01-20T01:33:32.674Z,100396.16
2023-01-20T01:36:01.157Z,100386.66
2023-01-20T01:38:29.074Z,100395.13
2023-01-20T01:40:56.318Z,100398.00
2023-01-20T01:43:26.847Z,100400.91
2023-01-20T01:45:53.804Z,100398.50
2023-01-20T01:48:33.686Z,100401.97
2023-01-20T01:51:09.165Z,100398.44
2023-01-20T01:53:48.627Z,100402.50
2023-01-20T01:56:16.044Z,100410.88
2023-01-20T01:58:46.422Z,100411.47
2023-01-20T02:01:13.257Z,100406.41
2023-01-20T02:03:54.617Z,100417.75
2023-01-20T02:07:35.789Z,100422.84
2023-01-20T02:10:02.373Z,100427.94
2023-01-20T02:12:29.523Z,100427.06
2023-01-20T02:14:59.492Z,100438.78
2023-01-20T02:17:31.405Z,100439.63
2023-01-20T02:20:16.220Z,100436.50
2023-01-20T02:22:56.080Z,100438.16
2023-01-20T02:25:22.430Z,100440.47
2023-01-20T02:28:12.302Z,100442.75
2023-01-20T02:31:09.860Z,100447.09
2023-01-20T02:34:03.434Z,100455.38
2023-01-20T02:36:45.458Z,100465.72
2023-01-20T02:39:49.458Z,100472.78
2023-01-20T02:42:32.051Z,100474.50
2023-01-20T02:45:09.406Z,100476.59
2023-01-20T02:47:43.232Z,100480.28
2023-01-20T02:50:27.461Z,100487.69
2023-01-20T02:52:57.755Z,100490.31
2023-01-20T02:55:34.051Z,100492.69
2023-01-20T02:58:08.320Z,100492.16
2023-01-20T03:00:44.680Z,100492.84
2023-01-20T03:03:15.375Z,100488.84
2023-01-20T03:05:49.191Z,100491.28
2023-01-20T03:08:18.045Z,100500.47
2023-01-20T03:10:47.784Z,100502.25
2023-01-20T03:13:19.160Z,100501.31
2023-01-20T03:15:59.320Z,100506.47
2023-01-20T03:18:29.339Z,100510.97
2023-01-20T03:20:59.425Z,100507.16
2023-01-20T03:23:30.407Z,100507.75
2023-01-20T03:25:57.847Z,100514.84
2023-01-20T03:28:24.372Z,100515.84
2023-01-20T03:30:52.091Z,100520.44
2023-01-20T03:33:18.949Z,100518.75
2023-01-20T03:35:45.532Z,100519.59
2023-01-20T03:38:12.217Z,100521.63
2023-01-20T03:40:46.794Z,100517.69
2023-01-20T03:43:42.420Z,100522.63
2023-01-20T03:46:19.470Z,100525.25
2023-01-20T03:48:53.916Z,100533.81
2023-01-20T03:51:34.636Z,100523.75
2023-01-20T03:54:06.961Z,100529.41
2023-01-20T03:56:41.221Z,100538.81
2023-01-20T03:59:11.188Z,100533.16
2023-01-20T04:01:41.785Z,100537.81
2023-01-20T04:04:11.926Z,100534.25
2023-01-20T04:06:41.386Z,100542.28
2023-01-20T04:09:12.905Z,100545.19
2023-01-20T04:11:39.416Z,100551.22
2023-01-20T04:14:08.821Z,100556.53
2023-01-20T04:16:36.888Z,100560.94
2023-01-20T04:19:03.597Z,100569.22
2023-01-20T04:21:35.293Z,100570.69
2023-01-20T04:24:04.473Z,100567.38
2023-01-20T04:26:30.936Z,100571.06
2023-01-20T04:28:57.543Z,100573.00
2023-01-20T04:31:30.536Z,100570.56
2023-01-20T04:33:57.811Z,100572.69
2023-01-20T04:36:24.284Z,100575.31
2023-01-20T04:38:50.745Z,100575.56
2023-01-20T04:41:17.211Z,100580.56
2023-01-20T04:43:45.250Z,100584.28
2023-01-20T04:46:12.581Z,100590.22
2023-01-20T04:48:39.563Z,100583.75
2023-01-20T04:51:07.631Z,100580.53
2023-01-20T04:53:34.810Z,100582.22
2023-01-20T04:56:01.349Z,100596.03
2023-01-20T04:58:27.990Z,100600.19
2023-01-20T05:00:54.560Z,100605.41
2023-01-20T05:03:21.561Z,100598.53
2023-01-20T05:05:55.024Z,100599.13
2023-01-20T05:08:21.634Z,100600.34
2023-01-20T05:10:48.241Z,100599.13
2023-01-20T05:13:14.712Z,100613.09
2023-01-20T05:15:42.610Z,100618.44
2023-01-20T05:18:09.163Z,100622.91
2023-01-20T05:20:35.694Z,100629.38
2023-01-20T05:23:02.257Z,100630.16
2023-01-20T05:25:28.732Z,100635.88
2023-01-20T05:27:55.153Z,100636.56
2023-01-20T05:30:21.732Z,100645.72
2023-01-20T05:33:03.309Z,100651.69
2023-01-20T05:35:29.789Z,100660.69
2023-01-20T05:37:57.081Z,100651.44
2023-01-20T05:40:23.680Z,100656.25
2023-01-20T05:42:50.141Z,100654.38
2023-01-20T05:45:17.347Z,100665.06
2023-01-20T05:47:43.991Z,100664.13
2023-01-20T05:50:11.282Z,100675.84
2023-01-20T05:52:37.778Z,100682.09
2023-01-20T05:55:05.243Z,100682.22
2023-01-20T05:57:31.702Z,100686.34
2023-01-20T05:59:58.188Z,100688.81
2023-01-20T06:02:24.790Z,100691.31
2023-01-20T06:04:51.255Z,100695.13
2023-01-20T06:07:17.844Z,100693.56
2023-01-20T06:09:44.451Z,100698.63
2023-01-20T06:12:10.877Z,100707.72
2023-01-20T06:14:37.456Z,100706.78
2023-01-20T06:17:04.031Z,100707.34
2023-01-20T06:19:30.645Z,100709.03
2023-01-20T06:21:57.111Z,100715.34
2023-01-20T06:24:23.540Z,100717.34
2023-01-20T06:26:51.027Z,100729.03
2023-01-20T06:29:17.759Z,100731.09
2023-01-20T06:31:44.900Z,100733.34
2023-01-20T06:34:12.312Z,100730.69
2023-01-20T06:36:39.493Z,100750.16
2023-01-20T06:39:06.205Z,100759.09
2023-01-20T06:41:32.704Z,100749.94
2023-01-20T06:43:59.211Z,100762.34
2023-01-20T06:46:25.993Z,100763.59
2023-01-20T06:48:52.660Z,100766.78
2023-01-20T06:51:20.725Z,100774.72
2023-01-20T06:53:47.698Z,100775.63
2023-01-20T06:56:15.759Z,100786.72
2023-01-20T06:58:42.366Z,100787.06
2023-01-20T07:01:18.531Z,100791.28
2023-01-20T07:03:45.222Z,100791.69
2023-01-20T07:06:15.965Z,100790.88
2023-01-20T07:08:45.973Z,100803.50
2023-01-20T07:11:13.237Z,100800.25
2023-01-20T07:13:39.885Z,100814.00
2023-01-20T07:16:08.866Z,100820.38
2023-01-20T07:18:37.685Z,100826.84
2023-01-20T07:21:04.941Z,100824.28
2023-01-20T07:23:33.603Z,100822.25
2023-01-20T07:26:08.088Z,100831.59
2023-01-20T07:28:35.408Z,100841.09
2023-01-20T07:31:10.927Z,100843.28
2023-01-20T07:33:38.006Z,100843.88
2023-01-20T07:36:05.375Z,100844.06
2023-01-20T07:38:32.357Z,100847.44
2023-01-20T07:41:05.092Z,100845.03
2023-01-20T07:43:32.455Z,100849.94
2023-01-20T07:46:04.407Z,100854.00
2023-01-20T07:48:32.490Z,100849.59
2023-01-20T07:51:05.734Z,100863.06
2023-01-20T07:53:34.433Z,100861.94
2023-01-20T07:56:06.376Z,100860.94
2023-01-20T07:58:33.542Z,100865.88
2023-01-20T08:01:11.591Z,100866.31
2023-01-20T08:03:38.395Z,100864.34
2023-01-20T08:06:06.751Z,100864.88
2023-01-20T08:08:34.087Z,100875.91
2023-01-20T08:11:01.402Z,100883.31
2023-01-20T08:13:32.050Z,100876.88
2023-01-20T08:16:04.034Z,100878.81
2023-01-20T08:18:32.195Z,100877.97
2023-01-20T08:20:58.645Z,100881.53
2023-01-20T08:23:25.597Z,100885.94
2023-01-20T08:26:00.092Z,100891.22
2023-01-20T08:28:27.092Z,100894.16
2023-01-20T08:30:54.136Z,100892.16
2023-01-20T08:33:21.052Z,100896.44
2023-01-20T08:35:47.919Z,100893.81
2023-01-20T08:38:14.646Z,100903.25
2023-01-20T08:40:43.218Z,100903.09
2023-01-20T08:43:09.902Z,100896.22
2023-01-20T08:45:36.471Z,100907.03
2023-01-20T08:48:02.996Z,100909.38
2023-01-20T08:50:29.518Z,100914.50
2023-01-20T08:52:55.964Z,100911.66
2023-01-20T08:55:22.513Z,100913.84
2023-01-20T08:57:49.017Z,100913.75
2023-01-20T09:00:16.301Z,100923.63
2023-01-20T09:02:42.823Z,100924.19
2023-01-20T09:05:09.756Z,100936.03
2023-01-20T09:07:36.314Z,100938.75
2023-01-20T09:10:03.827Z,100947.16
2023-01-20T09:12:30.318Z,100942.84
2023-01-20T09:14:56.771Z,100954.00
2023-01-20T09:17:23.386Z,100950.06
2023-01-20T09:19:49.975Z,100955.94
2023-01-20T09:22:16.660Z,100953.41
2023-01-20T09:24:43.377Z,100952.69
2023-01-20T09:27:09.823Z,100962.47
2023-01-20T09:29:36.714Z,100969.56
2023-01-20T09:32:03.314Z,100976.31
2023-01-20T09:34:31.408Z,100978.84
2023-01-20T09:37:19.181Z,100988.28
2023-01-20T09:40:05.133Z,100991.28
2023-01-20T09:43:07.800Z,100993.09
2023-01-20T09:45:43.547Z,100990.34
2023-01-20T09:48:40.796Z,100993.69
2023-01-20T09:51:36.493Z,100999.38
2023-01-20T09:54:16.981Z,100996.00
2023-01-20T09:56:47.794Z,101006.72
2023-01-20T09:59:36.136Z,101001.75
2023-01-20T10:02:11.428Z,101001.03
2023-01-20T10:04:46.731Z,100999.81
2023-01-20T10:07:15.892Z,101003.25
2023-01-20T10:09:45.211Z,101001.84
2023-01-20T10:12:19.530Z,101011.31
2023-01-20T10:14:55.785Z,101021.16
2023-01-20T10:17:33.912Z,101023.66
2023-01-20T10:20:12.749Z,101019.56
2023-01-20T10:22:50.352Z,101018.69
2023-01-20T10:25:52.215Z,101027.06
2023-01-20T10:28:22.709Z,101019.38
2023-01-20T10:30:49.456Z,101018.88
2023-01-20T10:33:24.144Z,101023.78
2023-01-20T10:35:53.996Z,101023.78
2023-01-20T10:38:38.301Z,101019.38
2023-01-20T10:41:20.340Z,101022.56
2023-01-20T10:43:48.112Z,101022.56
2023-01-20T10:46:20.434Z,101027.97
2023-01-20T10:48:55.985Z,101022.34
2023-01-20T10:51:40.730Z,101025.47
2023-01-20T10:54:22.881Z,101028.09
2023-01-20T10:56:59.013Z,101039.19
2023-01-20T10:59:31.420Z,101032.50
2023-01-20T11:02:12.051Z,101036.91
2023-01-20T11:04:39.158Z,101031.63
2023-01-20T11:07:08.684Z,101033.66
2023-01-20T11:09:38.158Z,101038.28
2023-01-20T11:12:14.159Z,101040.84
2023-01-20T11:14:41.383Z,101040.75
2023-01-20T11:17:14.670Z,101037.69
2023-01-20T11:19:55.345Z,101036.50
2023-01-20T11:22:34.373Z,101041.69
2023-01-20T11:25:04.078Z,101045.03
2023-01-20T11:27:41.420Z,101051.06
2023-01-20T11:30:23.444Z,101047.06
2023-01-20T11:33:25.982Z,101048.00
2023-01-20T11:36:16.801Z,101045.59
2023-01-20T11:38:49.663Z,101042.38
2023-01-20T11:41:21.053Z,101040.75
2023-01-20T11:43:49.312Z,101039.81
2023-01-20T11:46:19.544Z,101044.38
2023-01-20T11:48:46.317Z,101051.13
2023-01-20T11:51:18.992Z,101047.88
2023-01-20T11:53:46.755Z,101053.56
2023-01-20T11:56:24.678Z,101057.25
2023-01-20T11:58:55.493Z,101052.41
2023-01-20T12:01:30.916Z,101053.41
2023-01-20T12:04:14.760Z,101054.63
2023-01-20T12:06:53.901Z,101054.13
2023-01-20T12:09:27.952Z,101056.38
2023-01-20T12:11:57.521Z,101067.34
2023-01-20T12:14:42.335Z,101071.53
2023-01-20T12:17:09.012Z,101069.13
2023-01-20T12:19:59.151Z,101069.84
2023-01-20T12:22:58.873Z,101081.97
2023-01-20T12:25:37.079Z,101071.59
2023-01-20T12:28:13.349Z,101083.31
2023-01-20T12:30:55.073Z,101080.81
2023-01-20T12:33:24.872Z,101093.41
2023-01-20T12:36:11.906Z,101099.59
2023-01-20T12:39:00.371Z,101095.56
2023-01-20T12:41:35.082Z,101106.06
2023-01-20T12:44:36.577Z,101111.44
2023-01-20T12:47:30.925Z,101109.75
2023-01-20T12:49:57.416Z,101113.19
2023-01-20T12:52:54.924Z,101118.13
2023-01-20T12:55:45.037Z,101118.09
2023-01-20T12:58:27.753Z,101124.19
2023-01-20T13:01:16.843Z,101132.06
2023-01-20T13:03:49.302Z,101137.59
2023-01-20T13:06:42.512Z,101134.13
2023-01-20T13:09:27.998Z,101138.41
2023-01-20T13:12:26.055Z,101146.06
2023-01-20T13:15:15.431Z,101142.53
2023-01-20T13:17:47.998Z,101152.84
2023-01-20T13:20:26.387Z,101151.78
2023-01-20T13:22:54.679Z,101150.78
2023-01-20T13:25:22.886Z,101154.34
2023-01-20T13:27:51.341Z,101144.09
2023-01-20T13:30:44.389Z,101155.50
2023-01-20T13:33:38.877Z,101158.13
2023-01-20T13:36:14.424Z,101158.47
2023-01-20T13:38:41.152Z,101164.56
2023-01-20T13:41:08.841Z,101167.34
2023-01-20T13:43:43.976Z,101160.75
2023-01-20T13:46:15.108Z,101169.69
2023-01-20T13:49:33.399Z,101165.00
2023-01-20T13:51:59.962Z,101170.69
2023-01-20T13:54:28.946Z,101173.91
2023-01-20T13:57:28.118Z,101181.50
2023-01-20T13:59:55.925Z,101179.00
2023-01-20T14:02:28.691Z,101176.28
2023-01-20T14:04:55.721Z,101179.09
2023-01-20T14:07:23.785Z,101172.38
2023-01-20T14:09:55.705Z,101187.16
2023-01-20T14:12:22.323Z,101184.63
2023-01-20T14:14:50.221Z,101190.28
2023-01-20T14:17:23.283Z,101179.47
2023-01-20T14:19:52.600Z,101190.03
2023-01-20T14:22:23.690Z,101192.00
2023-01-20T14:24:59.909Z,101190.41
2023-01-20T14:27:31.867Z,101200.31
2023-01-20T14:30:17.023Z,101203.44
2023-01-20T14:32:43.879Z,101211.91
2023-01-20T14:35:17.147Z,101213.31
2023-01-20T14:37:48.378Z,101220.16
2023-01-20T14:40:15.122Z,101217.53
2023-01-20T14:42:42.135Z,101225.16
2023-01-20T14:45:23.571Z,101225.75
2023-01-20T14:47:52.478Z,101231.66
2023-01-20T14:50:20.098Z,101234.22
2023-01-20T14:52:47.397Z,101235.38
2023-01-20T14:55:58.454Z,101245.78
2023-01-20T14:58:25.083Z,101252.09
2023-01-20T15:00:54.931Z,101257.34
2023-01-20T15:03:28.255Z,101256.16
2023-01-20T15:06:00.583Z,101255.44
2023-01-20T15:08:56.773Z,101259.00
2023-01-20T15:11:28.354Z,101261.72
2023-01-20T15:13:54.806Z,101272.66
2023-01-20T15:16:43.986Z,101272.72
2023-01-20T15:19:13.170Z,101270.91
2023-01-20T15:22:00.780Z,101279.63
2023-01-20T15:24:32.719Z,101282.28
2023-01-20T15:27:01.678Z,101290.47
2023-01-20T15:29:35.562Z,101290.53
2023-01-20T15:32:10.337Z,101295.28
2023-01-20T15:34:36.799Z,101301.00
2023-01-20T15:37:14.202Z,101301.34
2023-01-20T15:39:40.657Z,101302.09
2023-01-20T15:42:11.598Z,101300.44
2023-01-20T15:44:38.111Z,101306.84
2023-01-20T15:47:31.323Z,101312.19
2023-01-20T15:49:58.321Z,101311.63
2023-01-20T15:52:24.928Z,101324.63
2023-01-20T15:54:51.372Z,101333.47
2023-01-20T15:57:18.199Z,101332.59
2023-01-20T15:59:46.093Z,101344.00
2023-01-20T16:02:20.948Z,101348.22
2023-01-20T16:04:47.509Z,101353.59
2023-01-20T16:07:19.538Z,101357.94
2023-01-20T16:09:47.236Z,101360.44
2023-01-20T16:12:18.602Z,101360.38
2023-01-20T16:14:45.684Z,101371.19
2023-01-20T16:17:23.349Z,101374.66
2023-01-20T16:19:50.421Z,101371.13
2023-01-20T16:22:17.221Z,101378.22
2023-01-20T16:24:44.065Z,101379.06
2023-01-20T16:27:19.819Z,101383.66
2023-01-20T16:29:46.433Z,101388.22
2023-01-20T16:32:15.228Z,101391.03
2023-01-20T16:34:44.238Z,101391.03
2023-01-20T16:37:13.632Z,101387.44
2023-01-20T16:39:40.136Z,101397.31
2023-01-20T16:42:06.693Z,101397.34
2023-01-20T16:44:33.291Z,101401.75
2023-01-20T16:47:00.234Z,101402.50
2023-01-20T16:49:26.789Z,101405.19
2023-01-20T16:51:53.352Z,101415.84
2023-01-20T16:54:19.846Z,101419.22
2023-01-20T16:56:46.356Z,101421.91
2023-01-20T16:59:13.172Z,101427.97
2023-01-20T17:01:40.311Z,101425.34
2023-01-20T17:04:06.749Z,101436.34
2023-01-20T17:06:34.615Z,101429.38
2023-01-20T17:09:03.784Z,101438.94
2023-01-20T17:11:32.857Z,101439.66
2023-01-20T17:14:02.062Z,101442.34
2023-01-20T17:16:29.095Z,101445.03
2023-01-20T17:18:58.445Z,101445.66
2023-01-20T17:21:27.451Z,101445.53
2023-01-20T17:23:56.911Z,101451.84
2023-01-20T17:26:24.448Z,101462.44
2023-01-20T17:29:10.315Z,101467.72
2023-01-20T17:31:37.192Z,101466.84
2023-01-20T17:34:05.225Z,101468.16
2023-01-20T17:36:34.547Z,101471.72
2023-01-20T17:39:02.749Z,101475.34
2023-01-20T17:41:29.359Z,101484.03
2023-01-20T17:43:55.818Z,101478.03
2023-01-20T17:46:28.066Z,101481.41
2023-01-20T17:48:59.105Z,101497.88
2023-01-20T17:51:28.026Z,101488.25
2023-01-20T17:53:55.033Z,101491.78
2023-01-20T17:56:22.642Z,101488.13
2023-01-20T17:58:49.643Z,101490.75
2023-01-20T18:01:17.507Z,101492.47
2023-01-20T18:03:45.190Z,101494.22
2023-01-20T18:06:13.857Z,101491.56
2023-01-20T18:08:40.679Z,101494.31
2023-01-20T18:11:15.019Z,101500.53
2023-01-20T18:13:44.748Z,101502.63
2023-01-20T18:16:13.709Z,101514.63
2023-01-20T18:18:41.542Z,101520.28
2023-01-20T18:21:22.460Z,101511.88
2023-01-20T18:23:50.170Z,101524.25
2023-01-20T18:26:21.443Z,101525.44
2023-01-20T18:28:48.331Z,101532.34
2023-01-20T18:31:18.724Z,101533.13
2023-01-20T18:33:48.756Z,101538.63
2023-01-20T18:36:25.901Z,101542.22
2023-01-20T18:38:54.898Z,101544.31
2023-01-20T18:41:21.874Z,101545.34
2023-01-20T18:43:49.148Z,101555.75
2023-01-20T18:46:16.419Z,101554.91
2023-01-20T18:48:47.380Z,101552.38
2023-01-20T18:51:15.854Z,101554.34
2023-01-20T18:53:44.281Z,101557.72
2023-01-20T18:56:13.114Z,101564.00
2023-01-20T18:58:42.984Z,101564.75
2023-01-20T19:01:12.190Z,101568.31
2023-01-20T19:03:39.559Z,101576.25
2023-01-20T19:06:08.475Z,101569.16
2023-01-20T19:08:34.915Z,101576.47
2023-01-20T19:11:02.310Z,101576.47
2023-01-20T19:13:29.225Z,101579.94
2023-01-20T19:15:56.126Z,101583.69
2023-01-20T19:18:22.736Z,101579.25
2023-01-20T19:20:49.175Z,101587.97
2023-01-20T19:23:15.666Z,101584.34
2023-01-20T19:25:42.177Z,101592.13
2023-01-20T19:28:09.612Z,101585.13
2023-01-20T19:30:36.387Z,101596.75
2023-01-20T19:33:02.900Z,101604.59
2023-01-20T19:35:31.562Z,101604.69
2023-01-20T19:37:58.183Z,101606.38
2023-01-20T19:40:24.747Z,101613.50
2023-01-20T19:42:52.560Z,101616.13
2023-01-20T19:45:19.149Z,101627.56
2023-01-20T19:47:45.613Z,101624.09
2023-01-20T19:50:12.196Z,101616.50
2023-01-20T19:52:38.604Z,101625.44
2023-01-20T19:55:05.637Z,101631.69
2023-01-20T19:57:32.191Z,101636.94
2023-01-20T19:59:58.914Z,101629.78
2023-01-20T20:02:27.472Z,101635.13
2023-01-20T20:04:53.993Z,101644.34
2023-01-20T20:07:20.640Z,101640.28
2023-01-20T20:09:47.097Z,101638.56
2023-01-20T20:12:13.678Z,101646.38
2023-01-20T20:14:40.249Z,101650.31
2023-01-20T20:17:06.708Z,101657.56
2023-01-20T20:19:33.171Z,101662.06
2023-01-20T20:21:59.566Z,101658.31
2023-01-20T20:24:25.992Z,101655.53
2023-01-20T20:26:52.447Z,101664.47
2023-01-20T20:29:19.493Z,101663.00
2023-01-20T20:31:46.857Z,101660.69
2023-01-20T20:34:16.803Z,101665.19
2023-01-20T20:36:43.516Z,101670.34
2023-01-20T20:39:13.654Z,101671.56
2023-01-20T20:41:40.210Z,101679.41
2023-01-20T20:44:06.972Z,101674.16
2023-01-20T20:46:33.579Z,101675.41
2023-01-20T20:49:01.137Z,101678.19
2023-01-20T20:51:32.998Z,101687.88
2023-01-20T20:54:01.503Z,101683.44
2023-01-20T20:56:31.614Z,101695.88
2023-01-20T20:59:02.247Z,101693.25
2023-01-20T21:01:31.400Z,101705.47
2023-01-20T21:04:00.186Z,101700.28
2023-01-20T21:06:26.674Z,101706.19
2023-01-20T21:08:53.172Z,101700.97
2023-01-20T21:11:22.294Z,101705.91
2023-01-20T21:13:51.396Z,101712.97
2023-01-20T21:16:21.939Z,101713.06
2023-01-20T21:18:49.559Z,101712.97
2023-01-20T21:21:19.546Z,101714.78
2023-01-20T21:23:51.436Z,101713.19
2023-01-20T21:26:18.006Z,101711.47
2023-01-20T21:28:44.633Z,101715.16
2023-01-20T21:31:14.353Z,101716.88
2023-01-20T21:33:42.413Z,101717.41
2023-01-20T21:36:12.393Z,101723.66
2023-01-20T21:38:41.522Z,101734.13
2023-01-20T21:41:09.974Z,101727.81
2023-01-20T21:44:00.849Z,101733.97
2023-01-20T21:46:29.593Z,101740.25
2023-01-20T21:49:14.514Z,101739.13
2023-01-20T21:51:59.925Z,101747.25
2023-01-20T21:54:30.372Z,101757.31
2023-01-20T21:56:57.635Z,101752.25
2023-01-20T21:59:24.105Z,101756.97
2023-01-20T22:01:51.503Z,101765.63
2023-01-20T22:04:18.753Z,101764.69
2023-01-20T22:06:45.278Z,101766.47
2023-01-20T22:09:12.422Z,101764.00
2023-01-20T22:11:38.937Z,101770.28
2023-01-20T22:14:05.546Z,101771.16
2023-01-20T22:16:32.373Z,101773.78
2023-01-20T22:18:58.876Z,101770.53
2023-01-20T22:21:25.581Z,101778.53
2023-01-20T22:23:52.340Z,101774.34
2023-01-20T22:26:19.267Z,101779.56
2023-01-20T22:28:45.735Z,101776.06
2023-01-20T22:31:19.954Z,101788.09
2023-01-20T22:33:51.576Z,101786.88
2023-01-20T22:36:18.720Z,101795.66
2023-01-20T22:38:46.201Z,101802.19
2023-01-20T22:41:12.756Z,101800.44
2023-01-20T22:43:41.168Z,101811.03
2023-01-20T22:46:07.687Z,101805.84
2023-01-20T22:48:34.535Z,101814.53
2023-01-20T22:51:09.786Z,101807.56
2023-01-20T22:53:37.134Z,101815.38
2023-01-20T22:56:10.067Z,101815.38
2023-01-20T22:58:37.303Z,101826.03
2023-01-20T23:01:05.255Z,101821.06
2023-01-20T23:03:31.855Z,101834.88
2023-01-20T23:05:59.919Z,101832.41
2023-01-20T23:08:28.317Z,101825.50
2023-01-20T23:10:56.526Z,101834.25
2023-01-20T23:13:23.262Z,101830.69
2023-01-20T23:15:51.060Z,101830.78
2023-01-20T23:18:18.836Z,101831.44
2023-01-20T23:20:52.497Z,101835.72
2023-01-20T23:23:20.537Z,101835.56
2023-01-20T23:25:47.837Z,101845.81
2023-01-20T23:28:15.145Z,101842.69
2023-01-20T23:30:42.198Z,101837.59
2023-01-20T23:33:10.582Z,101840.91
2023-01-20T23:35:39.026Z,101845.31
2023-01-20T23:38:06.878Z,101837.56
2023-01-20T23:40:34.173Z,101840.78
2023-01-20T23:43:00.886Z,101834.75
2023-01-20T23:45:28.782Z,101839.88
2023-01-20T23:47:55.521Z,101840.56
2023-01-20T23:50:22.000Z,101846.75
2023-01-20T23:52:48.429Z,101848.44
2023-01-20T23:55:14.856Z,101850.69
2023-01-20T23:57:41.336Z,101846.38
